Time;durP1;ratioP1;P1;durP2;ratioP2;P2;SDS_P1;SDS_P2;PMS_P1;PMS_P2;Temp;Humidity;BMP_temperature;BMP_pressure;BME280_temperature;BME280_humidity;BME280_pressure;Samples;Min_cycle;Max_cycle;Signal;HPM_P1;HPM_P2
2021/04/30 16:41:11;;;;;;;2.80;0.70;;;;;;;21.65;40.74;97860.69;5025736;28;20735;-74
2021/04/30 16:43:36;;;;;;;4.47;0.73;;;;;;;21.58;41.14;97867.16;5005982;28;20034;-74
2021/04/30 16:46:14;;;;;;;1.42;0.50;;;;;;;21.45;41.70;97855.00;4968455;28;20046;-72
2021/04/30 16:48:45;;;;;;;2.90;0.70;;;;;;;21.48;41.86;97863.28;5010356;28;20089;-73
2021/04/30 16:51:11;;;;;;;2.92;0.70;;;;;;;21.42;42.25;97866.00;4973097;28;93814;-72
2021/04/30 16:53:37;;;;;;;3.20;0.70;;;;;;;21.44;42.38;97866.56;4954913;28;20115;-72
2021/04/30 16:56:03;;;;;;;2.72;0.68;;;;;;;21.40;42.26;97860.16;4951043;28;20995;-77
2021/04/30 16:58:28;;;;;;;6.03;1.00;;;;;;;21.45;42.74;97876.16;4947691;28;20102;-73
2021/04/30 17:00:55;;;;;;;3.83;0.90;;;;;;;21.44;42.45;97875.31;4927278;28;20029;-73
2021/04/30 17:03:22;;;;;;;1.90;0.68;;;;;;;21.45;42.72;97884.09;4956203;28;20042;-73
2021/04/30 17:05:48;;;;;;;2.67;0.70;;;;;;;21.43;42.60;97883.47;4976037;28;20572;-74
2021/04/30 17:08:14;;;;;;;3.65;0.70;;;;;;;21.44;42.81;97885.09;4979163;28;20027;-72
2021/04/30 17:10:40;;;;;;;3.30;0.70;;;;;;;21.44;43.04;97880.59;4970667;28;20544;-72
2021/04/30 17:15:46;;;;;;;5.00;2.20;;;;;;;17.94;57.91;97855.28;4914536;27;20399;-72
2021/04/30 17:18:12;;;;;;;5.35;2.63;;;;;;;17.03;62.36;97863.03;4969777;28;20044;-72
2021/04/30 17:20:38;;;;;;;6.10;3.42;;;;;;;16.53;63.45;97837.19;4975204;28;20061;-72
2021/04/30 17:23:03;;;;;;;5.47;3.40;;;;;;;16.16;64.69;97856.13;4994749;28;20553;-70
2021/04/30 17:25:30;;;;;;;6.68;3.28;;;;;;;15.74;66.58;97857.00;5000210;28;20026;-72
2021/04/30 17:27:56;;;;;;;6.25;3.63;;;;;;;15.45;68.36;97852.81;4890800;28;20049;-73
2021/04/30 17:30:23;;;;;;;6.93;3.55;;;;;;;14.92;70.95;97834.19;4904457;28;20157;-71
2021/04/30 17:32:49;;;;;;;5.95;3.53;;;;;;;14.79;71.52;97856.66;5000684;28;20208;-74
2021/04/30 17:35:15;;;;;;;6.88;3.33;;;;;;;14.64;72.40;97847.25;4996288;28;20026;-73
2021/04/30 17:37:40;;;;;;;9.50;4.32;;;;;;;14.51;73.13;97854.00;4993088;28;20110;-71
2021/04/30 17:40:07;;;;;;;6.00;3.65;;;;;;;14.34;72.44;97848.19;5017064;28;20030;-73
2021/04/30 17:42:33;;;;;;;6.53;3.65;;;;;;;14.17;73.60;97836.38;5003646;28;20022;-73
2021/04/30 17:44:58;;;;;;;6.47;3.63;;;;;;;14.20;74.23;97843.81;4992951;28;20025;-72
2021/04/30 17:47:23;;;;;;;6.88;3.70;;;;;;;14.16;74.71;97840.78;5014570;28;20091;-73
2021/04/30 17:49:49;;;;;;;6.60;4.40;;;;;;;14.11;75.61;97837.09;5025241;28;20042;-71
2021/04/30 17:52:14;;;;;;;7.13;4.50;;;;;;;14.09;75.93;97837.31;5028924;28;20058;-72
2021/04/30 17:54:40;;;;;;;6.95;4.32;;;;;;;14.08;75.89;97843.53;5013105;28;20026;-74
2021/04/30 17:57:06;;;;;;;7.95;4.30;;;;;;;13.97;76.28;97849.25;5010413;28;20133;-72
2021/04/30 17:59:32;;;;;;;7.60;3.72;;;;;;;13.82;76.33;97831.00;5010268;28;20026;-72
2021/04/30 18:01:57;;;;;;;7.38;4.20;;;;;;;13.86;76.77;97849.72;5004926;28;20877;-72
2021/04/30 18:04:23;;;;;;;6.45;3.85;;;;;;;13.85;77.22;97854.13;5014088;28;20105;-72
2021/04/30 18:06:48;;;;;;;7.70;4.35;;;;;;;13.85;77.25;97851.50;5007996;28;20492;-72
2021/04/30 18:09:14;;;;;;;6.82;4.20;;;;;;;13.88;76.95;97842.50;5005719;28;20034;-71
2021/04/30 18:11:39;;;;;;;7.70;5.20;;;;;;;13.92;77.30;97852.41;5007157;28;20026;-72
2021/04/30 18:14:05;;;;;;;8.98;6.28;;;;;;;13.92;76.91;97854.22;4981408;28;20033;-70
2021/04/30 18:16:31;;;;;;;9.68;5.28;;;;;;;13.93;76.72;97853.22;5008815;28;20026;-70
2021/04/30 18:18:57;;;;;;;8.40;4.53;;;;;;;13.92;77.41;97852.41;5008933;28;20026;-69
2021/04/30 18:21:23;;;;;;;7.05;4.90;;;;;;;13.88;77.78;97858.19;4993894;28;20034;-71
2021/04/30 18:23:49;;;;;;;7.28;5.07;;;;;;;13.85;78.08;97861.97;4996431;28;20157;-71
2021/04/30 18:26:14;;;;;;;9.40;4.88;;;;;;;13.82;78.26;97862.34;5002275;28;20503;-70
2021/04/30 18:28:40;;;;;;;8.82;5.40;;;;;;;13.70;78.66;97858.59;4999038;28;20052;-69
2021/04/30 18:31:06;;;;;;;7.82;5.00;;;;;;;13.62;78.89;97870.75;4999719;28;20187;-69
2021/04/30 18:33:32;;;;;;;7.50;5.00;;;;;;;13.60;79.02;97885.81;4998827;28;20462;-70
2021/04/30 18:35:57;;;;;;;10.43;5.40;;;;;;;13.65;79.53;97877.41;4995398;28;20037;-71
2021/04/30 18:38:23;;;;;;;7.53;5.30;;;;;;;13.67;80.14;97874.63;4985561;28;20034;-70
2021/04/30 18:40:49;;;;;;;9.73;6.20;;;;;;;13.72;79.82;97872.28;4975941;28;20030;-70
2021/04/30 18:43:15;;;;;;;9.93;6.22;;;;;;;13.74;80.10;97872.91;4975113;28;20030;-68
2021/04/30 18:45:41;;;;;;;11.65;6.75;;;;;;;13.59;80.24;97852.81;4974046;28;20030;-67
2021/04/30 18:48:09;;;;;;;11.07;6.30;;;;;;;13.64;80.73;97866.16;4971414;28;20058;-67
2021/04/30 18:50:36;;;;;;;10.35;6.72;;;;;;;13.61;80.82;97876.16;4985757;28;20089;-67
2021/04/30 18:53:02;;;;;;;9.20;5.70;;;;;;;13.67;80.88;97880.63;4971263;28;20030;-68
2021/04/30 18:55:28;;;;;;;8.93;6.18;;;;;;;13.70;80.95;97887.31;4972559;28;20724;-68
2021/04/30 18:57:53;;;;;;;9.07;5.88;;;;;;;13.70;80.78;97897.78;4974420;28;20065;-67
2021/04/30 19:00:19;;;;;;;9.00;5.50;;;;;;;13.58;80.54;97890.41;4977735;28;20040;-67
2021/04/30 19:02:45;;;;;;;8.82;5.45;;;;;;;13.64;80.85;97891.47;4972596;28;20077;-67
2021/04/30 19:05:11;;;;;;;8.93;5.78;;;;;;;13.68;81.04;97905.78;4975444;28;20026;-68
2021/04/30 19:07:36;;;;;;;8.32;5.47;;;;;;;13.64;81.36;97897.50;4995511;28;20088;-68
2021/04/30 19:10:05;;;;;;;8.65;5.18;;;;;;;13.61;81.13;97887.41;4975623;28;20026;-69
2021/04/30 19:12:31;;;;;;;10.73;5.90;;;;;;;13.48;81.57;97881.22;4954837;28;20029;-68
2021/04/30 19:14:59;;;;;;;9.95;5.68;;;;;;;13.51;81.27;97886.06;4991314;28;20026;-68
2021/04/30 19:17:26;;;;;;;9.15;5.72;;;;;;;13.59;81.43;97906.88;5006848;28;20600;-68
2021/04/30 19:19:51;;;;;;;8.75;5.38;;;;;;;13.62;80.99;97903.91;4976726;28;20210;-69
2021/04/30 19:22:17;;;;;;;8.63;5.22;;;;;;;13.54;81.41;97907.41;4978482;28;20483;-68
2021/04/30 19:24:43;;;;;;;8.30;5.50;;;;;;;13.50;81.37;97907.97;4979776;28;20049;-69
2021/04/30 19:27:08;;;;;;;7.70;5.43;;;;;;;13.46;81.93;97907.50;4967291;28;20361;-68
2021/04/30 19:29:34;;;;;;;7.68;5.28;;;;;;;13.50;81.66;97905.34;4978762;28;20033;-69
2021/04/30 19:31:59;;;;;;;8.82;6.00;;;;;;;13.54;81.78;97915.25;4982231;28;20031;-69
2021/04/30 19:34:25;;;;;;;9.55;6.07;;;;;;;13.56;81.65;97913.28;4979089;28;20019;-68
2021/04/30 19:36:51;;;;;;;9.25;5.80;;;;;;;13.49;81.74;97911.56;4976937;28;20105;-68
2021/04/30 19:39:16;;;;;;;7.70;5.80;;;;;;;13.45;81.57;97914.53;4956934;28;20507;-70
2021/04/30 19:41:42;;;;;;;9.32;6.03;;;;;;;13.45;81.70;97911.09;4960301;28;20121;-69
2021/04/30 19:44:08;;;;;;;8.95;6.25;;;;;;;13.43;81.88;97905.25;4974252;28;20041;-69
2021/04/30 19:46:33;;;;;;;8.68;6.20;;;;;;;13.49;81.79;97908.94;4978923;28;20030;-69
2021/04/30 19:48:58;;;;;;;9.98;6.32;;;;;;;13.48;81.67;97905.53;4973561;28;20100;-69
2021/04/30 19:51:24;;;;;;;8.75;6.90;;;;;;;13.52;81.47;97917.22;4994935;28;20496;-69
2021/04/30 19:53:50;;;;;;;10.93;6.68;;;;;;;13.55;81.32;97921.28;4971634;28;20019;-69
2021/04/30 19:56:15;;;;;;;9.82;6.75;;;;;;;13.57;81.71;97925.34;4975539;28;20091;-68
2021/04/30 19:58:41;;;;;;;9.82;7.05;;;;;;;13.58;81.59;97926.13;4978852;28;20123;-69
2021/04/30 20:01:06;;;;;;;8.68;7.05;;;;;;;13.59;81.67;97928.56;4971960;28;20031;-69
2021/04/30 20:03:32;;;;;;;8.50;6.53;;;;;;;13.61;81.37;97934.41;4993977;28;20023;-69
2021/04/30 20:05:57;;;;;;;9.20;7.65;;;;;;;13.58;81.41;97924.34;4968488;28;20040;-69
2021/04/30 20:08:23;;;;;;;9.98;7.60;;;;;;;13.65;81.34;97932.25;5024150;28;20557;-69
2021/04/30 20:10:50;;;;;;;12.32;8.30;;;;;;;13.54;81.66;97922.28;5001414;28;20021;-69
2021/04/30 20:13:17;;;;;;;10.15;7.57;;;;;;;13.63;81.37;97934.25;4976989;28;20038;-69
2021/04/30 20:15:42;;;;;;;9.73;7.65;;;;;;;13.60;81.43;97938.03;4991176;28;20042;-70
2021/04/30 20:18:08;;;;;;;11.85;8.23;;;;;;;13.58;81.70;97939.19;4969708;28;20038;-69
2021/04/30 20:20:33;;;;;;;10.45;8.38;;;;;;;13.61;81.65;97949.28;4986598;28;20113;-69
2021/04/30 20:22:59;;;;;;;9.50;7.72;;;;;;;13.59;81.66;97946.06;4926270;28;83418;-69
2021/04/30 20:25:24;;;;;;;10.68;8.55;;;;;;;13.56;81.72;97955.06;4981043;28;20045;-69
2021/04/30 20:27:50;;;;;;;11.15;8.85;;;;;;;13.51;81.67;97952.19;4980773;28;20431;-69
2021/04/30 20:30:18;;;;;;;10.60;8.57;;;;;;;13.61;81.51;97957.13;4974074;28;20117;-70
2021/04/30 20:32:45;;;;;;;11.60;8.70;;;;;;;13.62;81.46;97956.16;4986835;28;20026;-71
2021/04/30 20:35:12;;;;;;;15.85;11.63;;;;;;;13.59;81.83;97949.47;4977582;28;20566;-69
2021/04/30 20:37:40;;;;;;;17.40;13.88;;;;;;;13.56;81.75;97951.63;5000319;28;20542;-71
2021/04/30 20:40:06;;;;;;;19.52;15.68;;;;;;;13.60;81.80;97952.91;4974218;28;20031;-69
2021/04/30 20:42:31;;;;;;;14.13;12.40;;;;;;;13.64;81.69;97962.00;4978682;28;20025;-70
2021/04/30 20:44:57;;;;;;;13.38;11.90;;;;;;;13.63;81.66;97955.97;4967081;28;20064;-69
2021/04/30 20:47:22;;;;;;;14.35;12.90;;;;;;;13.59;81.54;97957.31;4977124;28;20058;-71
2021/04/30 20:49:48;;;;;;;14.50;12.43;;;;;;;13.61;81.67;97965.75;4991697;28;20399;-70
2021/04/30 20:52:13;;;;;;;12.88;10.95;;;;;;;13.59;81.83;97956.50;4995545;28;20030;-69
2021/04/30 20:54:41;;;;;;;14.18;12.13;;;;;;;13.65;81.70;97955.78;4991110;28;20044;-70
2021/04/30 20:57:07;;;;;;;12.90;10.15;;;;;;;13.61;81.85;97951.91;4976141;28;20030;-70
2021/04/30 20:59:32;;;;;;;12.80;9.35;;;;;;;13.57;82.01;97954.06;4996693;28;20029;-70
2021/04/30 21:01:58;;;;;;;10.82;9.60;;;;;;;13.55;82.20;97955.25;4978250;28;20061;-71
2021/04/30 21:04:23;;;;;;;10.52;9.43;;;;;;;13.58;82.02;97950.47;4976599;28;20042;-70
2021/04/30 21:06:49;;;;;;;10.25;9.15;;;;;;;13.51;82.21;97941.75;4970635;28;20030;-70
2021/04/30 21:09:14;;;;;;;12.50;10.95;;;;;;;13.50;82.23;97944.53;4984369;28;20021;-70
2021/04/30 21:12:03;;;;;;;13.52;12.07;;;;;;;13.43;82.33;97933.97;4997165;28;20088;-71
2021/04/30 21:14:32;;;;;;;12.13;9.80;;;;;;;13.49;82.36;97943.72;4961120;28;20030;-71
2021/04/30 21:17:03;;;;;;;10.98;9.05;;;;;;;13.47;82.65;97935.25;4987474;28;20573;-71
2021/04/30 21:19:30;;;;;;;11.20;9.63;;;;;;;13.47;82.73;97935.25;4980804;28;20038;-71
2021/04/30 21:21:56;;;;;;;11.35;9.48;;;;;;;13.43;82.53;97929.59;4957964;28;20026;-71
2021/04/30 21:24:21;;;;;;;11.30;9.27;;;;;;;13.51;82.75;97936.50;4980018;28;20034;-72
2021/04/30 21:26:47;;;;;;;11.77;9.50;;;;;;;13.44;82.65;97939.03;4980349;28;20386;-72
2021/04/30 21:29:13;;;;;;;10.75;9.10;;;;;;;13.42;82.57;97940.19;4973404;28;20033;-72
2021/04/30 21:31:39;;;;;;;11.38;8.93;;;;;;;13.44;82.71;97943.44;4974378;28;20464;-72
2021/04/30 21:34:04;;;;;;;10.65;8.95;;;;;;;13.41;82.53;97939.38;4983294;28;20145;-73
2021/04/30 21:36:30;;;;;;;13.02;9.95;;;;;;;13.42;82.52;97942.81;4974871;28;20038;-72
2021/04/30 21:38:56;;;;;;;11.80;9.65;;;;;;;13.36;82.27;97935.69;4972620;28;20028;-72
2021/04/30 21:41:21;;;;;;;10.65;8.98;;;;;;;13.30;82.43;97924.13;4977280;28;20034;-72
2021/04/30 21:43:47;;;;;;;14.30;10.10;;;;;;;13.44;82.69;97943.44;4992617;28;20026;-72
2021/04/30 21:46:12;;;;;;;12.90;9.30;;;;;;;13.43;82.50;97944.41;4979648;28;20110;-72
2021/04/30 21:48:38;;;;;;;11.38;8.18;;;;;;;13.31;82.88;97940.66;4977423;28;20030;-72
2021/04/30 21:51:04;;;;;;;12.10;7.95;;;;;;;13.36;82.68;97948.72;4977352;28;20050;-76
2021/04/30 21:53:29;;;;;;;10.48;7.05;;;;;;;13.33;82.51;97949.09;4980476;28;20073;-77
2021/04/30 21:55:55;;;;;;;9.10;7.18;;;;;;;13.30;82.62;97933.75;4984085;28;20057;-77
2021/04/30 21:58:21;;;;;;;10.10;7.07;;;;;;;13.46;82.71;97962.34;4981682;28;20049;-77
2021/04/30 22:00:49;;;;;;;9.70;7.40;;;;;;;13.42;82.87;97959.28;4987390;28;20038;-77
2021/04/30 22:03:15;;;;;;;10.10;7.13;;;;;;;13.34;82.79;97935.84;4976628;28;20142;-79
2021/04/30 22:05:40;;;;;;;8.95;7.22;;;;;;;13.42;82.50;97946.22;4992999;28;20543;-78
2021/04/30 22:08:06;;;;;;;9.48;7.03;;;;;;;13.43;82.64;97944.41;4982254;28;20026;-77
2021/04/30 22:10:32;;;;;;;9.23;7.50;;;;;;;13.33;82.58;97941.28;4991406;28;20035;-77
2021/04/30 22:12:59;;;;;;;10.65;7.00;;;;;;;13.25;82.45;97932.50;4991545;28;20109;-77
2021/04/30 22:15:28;;;;;;;11.15;7.60;;;;;;;13.28;82.52;97937.34;4983890;28;20102;-77
2021/04/30 22:17:54;;;;;;;11.05;8.15;;;;;;;13.41;82.65;97957.66;4995280;28;20066;-76
2021/04/30 22:20:22;;;;;;;12.13;8.20;;;;;;;13.41;82.55;97957.66;4970901;28;20893;-78
2021/04/30 22:22:48;;;;;;;10.23;7.60;;;;;;;13.34;82.41;97942.88;4972604;28;20210;-77
2021/04/30 22:25:14;;;;;;;11.30;8.02;;;;;;;13.34;82.48;97948.91;4988997;28;20026;-78
2021/04/30 22:27:40;;;;;;;10.75;8.27;;;;;;;13.35;82.39;97952.34;4988124;28;20181;-78
2021/04/30 22:30:06;;;;;;;10.25;8.10;;;;;;;13.37;82.54;97951.16;4966689;28;20491;-77
2021/04/30 22:32:32;;;;;;;11.23;8.68;;;;;;;13.31;82.52;97935.44;4985323;28;20078;-79
2021/04/30 22:35:00;;;;;;;10.95;8.93;;;;;;;13.29;82.68;97930.34;4998042;28;20033;-78
2021/04/30 22:37:26;;;;;;;10.73;9.05;;;;;;;13.28;83.03;97933.94;4983469;28;20054;-76
2021/04/30 22:39:52;;;;;;;12.20;9.40;;;;;;;13.27;82.98;97929.72;4986902;28;20051;-76
2021/04/30 22:42:17;;;;;;;11.85;9.68;;;;;;;13.28;83.19;97937.34;4984208;28;20026;-77
2021/04/30 22:44:43;;;;;;;12.43;10.07;;;;;;;13.28;83.16;97929.50;4989484;28;20038;-77
2021/04/30 22:47:14;;;;;;;12.90;9.98;;;;;;;13.30;83.05;97934.56;4993958;28;20480;-77
2021/04/30 22:49:40;;;;;;;12.20;10.18;;;;;;;13.17;83.44;97923.94;4980432;28;20395;-77
2021/04/30 22:52:06;;;;;;;13.40;10.10;;;;;;;13.05;83.71;97926.16;4986714;28;20034;-77
2021/04/30 22:54:32;;;;;;;19.70;13.27;;;;;;;13.13;83.92;97943.56;4993896;28;20026;-77
2021/04/30 22:57:00;;;;;;;23.27;15.57;;;;;;;12.97;83.94;97906.16;4986690;28;20034;-77
2021/04/30 22:59:26;;;;;;;23.92;16.02;;;;;;;13.23;83.79;97941.47;4996470;28;20018;-77
2021/04/30 23:01:52;;;;;;;21.95;16.20;;;;;;;13.15;83.89;97921.50;4981697;28;20077;-77
2021/04/30 23:04:17;;;;;;;20.90;14.32;;;;;;;13.17;83.61;97923.94;4986104;28;20502;-77
2021/04/30 23:06:43;;;;;;;15.13;12.10;;;;;;;13.25;83.60;97937.72;4982365;28;20065;-76
2021/04/30 23:09:12;;;;;;;13.30;10.20;;;;;;;13.20;83.99;97927.00;4982471;28;20026;-76
2021/04/30 23:11:44;;;;;;;11.32;9.55;;;;;;;13.26;83.73;97941.94;4984494;28;20117;-76
2021/04/30 23:14:09;;;;;;;11.00;9.15;;;;;;;13.11;84.12;97919.44;4997959;28;20507;-77
2021/04/30 23:16:35;;;;;;;11.73;9.10;;;;;;;13.04;83.96;97908.88;4979162;28;20041;-76
2021/04/30 23:19:01;;;;;;;11.23;9.02;;;;;;;13.10;83.54;97913.38;4987556;28;20088;-77
2021/04/30 23:21:26;;;;;;;10.93;9.13;;;;;;;13.21;83.67;97925.19;4973084;28;20030;-77
2021/04/30 23:23:51;;;;;;;12.43;9.45;;;;;;;13.15;83.32;97918.88;4983530;28;20155;-76
2021/04/30 23:26:17;;;;;;;13.70;9.82;;;;;;;13.13;83.83;97917.44;4981616;28;20030;-77
2021/04/30 23:28:42;;;;;;;14.40;9.90;;;;;;;13.16;84.11;97920.53;4980894;28;20064;-75
2021/04/30 23:31:08;;;;;;;12.32;9.30;;;;;;;13.24;83.79;97917.81;4981993;28;20553;-74
2021/04/30 23:33:34;;;;;;;11.75;9.50;;;;;;;13.14;83.30;97899.00;4998083;28;20030;-74
2021/04/30 23:36:00;;;;;;;13.80;10.95;;;;;;;13.28;83.07;97916.47;4984267;28;20030;-75
2021/04/30 23:38:25;;;;;;;13.18;10.95;;;;;;;13.26;83.59;97910.59;4981678;28;20026;-75
2021/04/30 23:40:51;;;;;;;14.75;11.80;;;;;;;13.31;83.17;97914.53;4982500;28;20037;-75
2021/04/30 23:43:16;;;;;;;13.20;11.80;;;;;;;13.19;83.30;97893.25;4982761;28;20026;-75
2021/04/30 23:45:42;;;;;;;15.93;11.98;;;;;;;13.20;83.29;97907.94;4984629;28;20075;-76
2021/04/30 23:48:08;;;;;;;14.27;12.02;;;;;;;13.16;83.01;97902.25;4990737;28;20056;-77
2021/04/30 23:50:34;;;;;;;14.07;11.95;;;;;;;13.28;83.21;97919.06;4988930;28;20022;-77
2021/04/30 23:53:00;;;;;;;16.33;13.13;;;;;;;13.23;83.32;97907.53;4985619;28;20062;-76
2021/04/30 23:55:28;;;;;;;17.55;12.60;;;;;;;13.19;83.38;97901.88;4987486;28;20057;-76
2021/04/30 23:57:54;;;;;;;15.40;13.25;;;;;;;13.28;82.99;97910.44;4991667;28;20050;-76
